sensor_id;sensor_type;location;lat;lon;timestamp;pressure;altitude;pressure_sealevel;temperature;humidity
47588;BME280;34356;45.788;12.046;2022-10-16T00:01:18;100567.95;;;19.77;43.85
47588;BME280;34356;45.788;12.046;2022-10-16T00:03:46;100569.41;;;20.22;43.76
47588;BME280;34356;45.788;12.046;2022-10-16T00:06:16;100569.96;;;19.68;43.81
47588;BME280;34356;45.788;12.046;2022-10-16T00:08:43;100568.35;;;20.36;43.82
47588;BME280;34356;45.788;12.046;2022-10-16T00:11:13;100567.96;;;19.87;43.93
47588;BME280;34356;45.788;12.046;2022-10-16T00:13:43;100573.07;;;20.38;43.86
47588;BME280;34356;45.788;12.046;2022-10-16T00:16:11;100575.08;;;19.98;43.82
47588;BME280;34356;45.788;12.046;2022-10-16T00:18:39;100569.69;;;20.46;43.74
47588;BME280;34356;45.788;12.046;2022-10-16T00:21:10;100570.97;;;20.45;43.78
47588;BME280;34356;45.788;12.046;2022-10-16T00:23:38;100575.84;;;20.22;43.66
47588;BME280;34356;45.788;12.046;2022-10-16T00:26:08;100577.92;;;20.20;43.72
47588;BME280;34356;45.788;12.046;2022-10-16T00:28:36;100581.04;;;20.42;43.72
47588;BME280;34356;45.788;12.046;2022-10-16T00:31:05;100583.33;;;20.36;43.89
47588;BME280;34356;45.788;12.046;2022-10-16T00:33:33;100585.44;;;20.14;43.89
47588;BME280;34356;45.788;12.046;2022-10-16T00:36:02;100588.13;;;20.40;43.92
47588;BME280;34356;45.788;12.046;2022-10-16T00:38:30;100586.30;;;20.18;43.90
47588;BME280;34356;45.788;12.046;2022-10-16T00:40:58;100585.65;;;20.38;43.91
47588;BME280;34356;45.788;12.046;2022-10-16T00:43:36;100585.94;;;20.18;43.89
47588;BME280;34356;45.788;12.046;2022-10-16T00:46:08;100583.09;;;20.19;43.92
47588;BME280;34356;45.788;12.046;2022-10-16T00:48:38;100586.80;;;20.41;43.97
47588;BME280;34356;45.788;12.046;2022-10-16T00:51:06;100589.36;;;20.21;43.94
47588;BME280;34356;45.788;12.046;2022-10-16T00:53:34;100588.86;;;20.16;44.08
47588;BME280;34356;45.788;12.046;2022-10-16T00:56:03;100589.71;;;20.38;44.08
47588;BME280;34356;45.788;12.046;2022-10-16T00:58:30;100589.54;;;20.16;44.06
47588;BME280;34356;45.788;12.046;2022-10-16T01:00:58;100585.97;;;20.12;44.05
47588;BME280;34356;45.788;12.046;2022-10-16T01:03:27;100585.92;;;20.10;44.02
47588;BME280;34356;45.788;12.046;2022-10-16T01:06:05;100586.43;;;20.08;43.97
47588;BME280;34356;45.788;12.046;2022-10-16T01:08:44;100585.24;;;20.24;44.00
47588;BME280;34356;45.788;12.046;2022-10-16T01:11:19;100586.49;;;20.02;43.89
47588;BME280;34356;45.788;12.046;2022-10-16T01:13:54;100589.87;;;20.03;43.83
47588;BME280;34356;45.788;12.046;2022-10-16T01:16:28;100595.05;;;20.01;43.84
47588;BME280;34356;45.788;12.046;2022-10-16T01:19:05;100595.97;;;20.23;43.76
47588;BME280;34356;45.788;12.046;2022-10-16T01:21:38;100596.45;;;20.00;43.66
47588;BME280;34356;45.788;12.046;2022-10-16T01:24:13;100597.67;;;20.45;43.69
47588;BME280;34356;45.788;12.046;2022-10-16T01:27:01;100598.06;;;19.93;43.83
47588;BME280;34356;45.788;12.046;2022-10-16T01:29:32;100599.11;;;20.09;43.94
47588;BME280;34356;45.788;12.046;2022-10-16T01:32:07;100598.74;;;20.07;44.00
47588;BME280;34356;45.788;12.046;2022-10-16T01:34:40;100597.65;;;19.82;44.06
47588;BME280;34356;45.788;12.046;2022-10-16T01:37:12;100597.16;;;20.05;44.08
47588;BME280;34356;45.788;12.046;2022-10-16T01:39:46;100597.46;;;19.86;44.00
47588;BME280;34356;45.788;12.046;2022-10-16T01:42:16;100600.41;;;19.83;44.02
47588;BME280;34356;45.788;12.046;2022-10-16T01:44:46;100600.17;;;19.95;44.21
47588;BME280;34356;45.788;12.046;2022-10-16T01:47:17;100600.92;;;19.45;44.24
47588;BME280;34356;45.788;12.046;2022-10-16T01:49:46;100596.89;;;20.09;44.18
47588;BME280;34356;45.788;12.046;2022-10-16T01:52:16;100598.75;;;19.48;44.40
47588;BME280;34356;45.788;12.046;2022-10-16T01:54:46;100599.30;;;19.66;44.43
47588;BME280;34356;45.788;12.046;2022-10-16T01:57:16;100596.99;;;19.37;44.51
47588;BME280;34356;45.788;12.046;2022-10-16T01:59:46;100598.44;;;19.35;44.52
47588;BME280;34356;45.788;12.046;2022-10-16T02:02:15;100599.91;;;19.12;44.57
47588;BME280;34356;45.788;12.046;2022-10-16T02:04:47;100600.20;;;19.82;44.58
47588;BME280;34356;45.788;12.046;2022-10-16T02:07:17;100607.87;;;18.79;44.56
47588;BME280;34356;45.788;12.046;2022-10-16T02:09:44;100608.23;;;19.76;44.53
47588;BME280;34356;45.788;12.046;2022-10-16T02:12:15;100608.71;;;19.23;44.63
47588;BME280;34356;45.788;12.046;2022-10-16T02:14:45;100613.70;;;19.70;44.63
47588;BME280;34356;45.788;12.046;2022-10-16T02:17:16;100619.23;;;19.63;44.69
47588;BME280;34356;45.788;12.046;2022-10-16T02:19:45;100621.29;;;19.24;44.80
47588;BME280;34356;45.788;12.046;2022-10-16T02:22:18;100623.02;;;18.98;44.80
47588;BME280;34356;45.788;12.046;2022-10-16T02:24:53;100626.02;;;19.41;44.76
47588;BME280;34356;45.788;12.046;2022-10-16T02:27:26;100627.14;;;19.02;44.87
47588;BME280;34356;45.788;12.046;2022-10-16T02:30:03;100625.79;;;19.12;44.94
47588;BME280;34356;45.788;12.046;2022-10-16T02:32:32;100623.31;;;19.00;45.09
47588;BME280;34356;45.788;12.046;2022-10-16T02:35:03;100626.00;;;19.07;45.25
47588;BME280;34356;45.788;12.046;2022-10-16T02:37:32;100628.87;;;18.78;45.37
47588;BME280;34356;45.788;12.046;2022-10-16T02:39:59;100630.35;;;19.17;45.50
47588;BME280;34356;45.788;12.046;2022-10-16T02:42:29;100630.58;;;18.62;45.62
47588;BME280;34356;45.788;12.046;2022-10-16T02:44:56;100635.25;;;18.63;45.57
47588;BME280;34356;45.788;12.046;2022-10-16T02:47:23;100633.82;;;18.62;45.46
47588;BME280;34356;45.788;12.046;2022-10-16T02:49:51;100638.18;;;18.73;45.66
47588;BME280;34356;45.788;12.046;2022-10-16T02:52:18;100641.54;;;18.19;45.60
47588;BME280;34356;45.788;12.046;2022-10-16T02:54:45;100643.02;;;18.61;45.69
47588;BME280;34356;45.788;12.046;2022-10-16T02:57:12;100642.87;;;18.04;45.88
47588;BME280;34356;45.788;12.046;2022-10-16T02:59:40;100648.86;;;18.46;45.98
47588;BME280;34356;45.788;12.046;2022-10-16T03:02:07;100653.91;;;18.67;45.99
47588;BME280;34356;45.788;12.046;2022-10-16T03:04:34;100650.41;;;18.65;46.05
47588;BME280;34356;45.788;12.046;2022-10-16T03:07:01;100645.46;;;18.56;46.16
47588;BME280;34356;45.788;12.046;2022-10-16T03:09:29;100646.24;;;18.50;46.23
47588;BME280;34356;45.788;12.046;2022-10-16T03:11:56;100647.90;;;18.23;46.29
47588;BME280;34356;45.788;12.046;2022-10-16T03:14:22;100651.67;;;18.40;46.37
47588;BME280;34356;45.788;12.046;2022-10-16T03:16:50;100650.72;;;18.04;46.72
47588;BME280;34356;45.788;12.046;2022-10-16T03:19:18;100649.69;;;17.81;46.72
47588;BME280;34356;45.788;12.046;2022-10-16T03:21:45;100650.44;;;18.24;46.74
47588;BME280;34356;45.788;12.046;2022-10-16T03:24:13;100652.81;;;17.84;46.67
47588;BME280;34356;45.788;12.046;2022-10-16T03:26:40;100650.35;;;17.86;46.60
47588;BME280;34356;45.788;12.046;2022-10-16T03:29:08;100650.40;;;18.34;46.70
47588;BME280;34356;45.788;12.046;2022-10-16T03:31:36;100650.93;;;18.35;46.54
47588;BME280;34356;45.788;12.046;2022-10-16T03:34:03;100650.79;;;18.26;46.71
47588;BME280;34356;45.788;12.046;2022-10-16T03:36:30;100648.99;;;17.95;46.70
47588;BME280;34356;45.788;12.046;2022-10-16T03:38:57;100647.27;;;18.35;46.81
47588;BME280;34356;45.788;12.046;2022-10-16T03:41:25;100650.34;;;17.97;46.96
47588;BME280;34356;45.788;12.046;2022-10-16T03:43:52;100652.59;;;17.92;47.04
47588;BME280;34356;45.788;12.046;2022-10-16T03:46:19;100650.40;;;17.93;46.96
47588;BME280;34356;45.788;12.046;2022-10-16T03:48:46;100652.76;;;17.90;47.02
47588;BME280;34356;45.788;12.046;2022-10-16T03:51:14;100651.61;;;17.44;47.06
47588;BME280;34356;45.788;12.046;2022-10-16T03:53:41;100654.13;;;17.93;46.88
47588;BME280;34356;45.788;12.046;2022-10-16T03:56:09;100651.81;;;18.16;46.88
47588;BME280;34356;45.788;12.046;2022-10-16T03:58:37;100652.44;;;17.83;46.96
47588;BME280;34356;45.788;12.046;2022-10-16T04:01:04;100652.47;;;18.02;47.05
47588;BME280;34356;45.788;12.046;2022-10-16T04:03:32;100653.18;;;18.14;47.15
47588;BME280;34356;45.788;12.046;2022-10-16T04:05:59;100649.96;;;17.63;47.18
47588;BME280;34356;45.788;12.046;2022-10-16T04:08:26;100648.80;;;17.22;47.05
47588;BME280;34356;45.788;12.046;2022-10-16T04:10:53;100650.67;;;17.96;47.02
47588;BME280;34356;45.788;12.046;2022-10-16T04:13:20;100647.24;;;18.10;47.08
47588;BME280;34356;45.788;12.046;2022-10-16T04:15:47;100649.25;;;17.51;47.16
47588;BME280;34356;45.788;12.046;2022-10-16T04:18:14;100650.83;;;17.79;47.13
47588;BME280;34356;45.788;12.046;2022-10-16T04:20:41;100652.06;;;17.96;47.16
47588;BME280;34356;45.788;12.046;2022-10-16T04:23:09;100650.44;;;17.93;47.21
47588;BME280;34356;45.788;12.046;2022-10-16T04:25:36;100653.52;;;17.67;47.25
47588;BME280;34356;45.788;12.046;2022-10-16T04:28:03;100658.95;;;17.85;47.27
47588;BME280;34356;45.788;12.046;2022-10-16T04:30:30;100661.52;;;17.31;47.26
47588;BME280;34356;45.788;12.046;2022-10-16T04:32:57;100665.58;;;17.49;47.35
47588;BME280;34356;45.788;12.046;2022-10-16T04:35:25;100668.21;;;17.22;47.31
47588;BME280;34356;45.788;12.046;2022-10-16T04:37:53;100667.06;;;17.64;47.34
47588;BME280;34356;45.788;12.046;2022-10-16T04:40:20;100667.39;;;17.02;47.51
47588;BME280;34356;45.788;12.046;2022-10-16T04:42:48;100667.08;;;17.25;47.57
47588;BME280;34356;45.788;12.046;2022-10-16T04:45:15;100670.15;;;16.77;47.49
47588;BME280;34356;45.788;12.046;2022-10-16T04:47:42;100671.09;;;17.21;47.47
47588;BME280;34356;45.788;12.046;2022-10-16T04:50:10;100675.58;;;17.35;47.59
47588;BME280;34356;45.788;12.046;2022-10-16T04:52:37;100674.94;;;17.29;47.65
47588;BME280;34356;45.788;12.046;2022-10-16T04:55:05;100676.60;;;17.16;47.87
47588;BME280;34356;45.788;12.046;2022-10-16T04:57:33;100678.08;;;16.93;47.94
47588;BME280;34356;45.788;12.046;2022-10-16T05:00:01;100682.19;;;17.15;47.87
47588;BME280;34356;45.788;12.046;2022-10-16T05:02:28;100682.56;;;17.03;48.03
47588;BME280;34356;45.788;12.046;2022-10-16T05:04:55;100684.03;;;16.93;48.16
47588;BME280;34356;45.788;12.046;2022-10-16T05:07:22;100683.74;;;16.93;48.15
47588;BME280;34356;45.788;12.046;2022-10-16T05:09:49;100682.92;;;17.19;48.21
47588;BME280;34356;45.788;12.046;2022-10-16T05:12:17;100683.39;;;16.19;48.19
47588;BME280;34356;45.788;12.046;2022-10-16T05:14:44;100682.76;;;17.15;48.23
47588;BME280;34356;45.788;12.046;2022-10-16T05:17:11;100679.75;;;16.83;48.28
47588;BME280;34356;45.788;12.046;2022-10-16T05:19:38;100681.14;;;16.80;48.29
47588;BME280;34356;45.788;12.046;2022-10-16T05:22:05;100683.14;;;17.28;48.33
47588;BME280;34356;45.788;12.046;2022-10-16T05:24:32;100681.70;;;16.77;48.38
47588;BME280;34356;45.788;12.046;2022-10-16T05:26:59;100681.21;;;16.79;48.32
47588;BME280;34356;45.788;12.046;2022-10-16T05:29:27;100683.93;;;16.81;48.30
47588;BME280;34356;45.788;12.046;2022-10-16T05:31:53;100683.14;;;17.11;48.26
47588;BME280;34356;45.788;12.046;2022-10-16T05:34:21;100687.84;;;16.60;48.32
47588;BME280;34356;45.788;12.046;2022-10-16T05:36:48;100686.29;;;16.66;48.22
47588;BME280;34356;45.788;12.046;2022-10-16T05:39:18;100691.99;;;16.46;48.10
47588;BME280;34356;45.788;12.046;2022-10-16T05:41:46;100696.18;;;16.96;48.10
47588;BME280;34356;45.788;12.046;2022-10-16T05:44:14;100702.37;;;17.02;48.07
47588;BME280;34356;45.788;12.046;2022-10-16T05:46:40;100704.53;;;17.02;48.08
47588;BME280;34356;45.788;12.046;2022-10-16T05:49:08;100706.08;;;17.07;48.03
47588;BME280;34356;45.788;12.046;2022-10-16T05:51:35;100709.63;;;17.11;47.99
47588;BME280;34356;45.788;12.046;2022-10-16T05:54:02;100711.41;;;17.13;47.94
47588;BME280;34356;45.788;12.046;2022-10-16T05:56:30;100715.61;;;17.09;48.03
47588;BME280;34356;45.788;12.046;2022-10-16T05:58:57;100719.07;;;17.09;48.09
47588;BME280;34356;45.788;12.046;2022-10-16T06:01:24;100723.12;;;16.88;47.97
47588;BME280;34356;45.788;12.046;2022-10-16T06:03:51;100724.32;;;17.07;48.04
47588;BME280;34356;45.788;12.046;2022-10-16T06:06:21;100728.21;;;16.60;47.94
47588;BME280;34356;45.788;12.046;2022-10-16T06:08:50;100729.49;;;17.04;48.00
47588;BME280;34356;45.788;12.046;2022-10-16T06:11:19;100734.36;;;16.53;48.03
47588;BME280;34356;45.788;12.046;2022-10-16T06:13:49;100734.41;;;16.99;48.09
47588;BME280;34356;45.788;12.046;2022-10-16T06:16:17;100737.20;;;16.98;48.10
47588;BME280;34356;45.788;12.046;2022-10-16T06:18:44;100739.41;;;16.95;48.16
47588;BME280;34356;45.788;12.046;2022-10-16T06:21:15;100742.68;;;16.75;48.19
47588;BME280;34356;45.788;12.046;2022-10-16T06:23:43;100747.64;;;16.98;48.09
47588;BME280;34356;45.788;12.046;2022-10-16T06:26:12;100750.85;;;16.95;48.18
47588;BME280;34356;45.788;12.046;2022-10-16T06:28:40;100757.41;;;16.89;48.16
47588;BME280;34356;45.788;12.046;2022-10-16T06:31:09;100757.74;;;16.84;48.16
47588;BME280;34356;45.788;12.046;2022-10-16T06:33:37;100758.95;;;16.75;48.29
47588;BME280;34356;45.788;12.046;2022-10-16T06:36:06;100765.39;;;16.74;48.41
47588;BME280;34356;45.788;12.046;2022-10-16T06:38:35;100766.74;;;16.71;48.50
47588;BME280;34356;45.788;12.046;2022-10-16T06:41:03;100768.61;;;16.77;48.39
47588;BME280;34356;45.788;12.046;2022-10-16T06:43:31;100770.65;;;16.79;48.34
47588;BME280;34356;45.788;12.046;2022-10-16T06:46:00;100771.22;;;16.81;48.31
47588;BME280;34356;45.788;12.046;2022-10-16T06:48:28;100778.97;;;16.81;48.33
47588;BME280;34356;45.788;12.046;2022-10-16T06:50:57;100778.75;;;17.05;48.49
47588;BME280;34356;45.788;12.046;2022-10-16T06:53:25;100784.48;;;16.63;48.46
47588;BME280;34356;45.788;12.046;2022-10-16T06:55:53;100785.49;;;16.86;48.44
47588;BME280;34356;45.788;12.046;2022-10-16T06:58:25;100791.18;;;16.68;48.41
47588;BME280;34356;45.788;12.046;2022-10-16T07:00:56;100794.22;;;16.88;48.55
47588;BME280;34356;45.788;12.046;2022-10-16T07:03:23;100800.88;;;16.66;48.58
47588;BME280;34356;45.788;12.046;2022-10-16T07:05:50;100803.72;;;16.94;48.57
47588;BME280;34356;45.788;12.046;2022-10-16T07:08:17;100805.89;;;16.46;48.58
47588;BME280;34356;45.788;12.046;2022-10-16T07:10:44;100813.86;;;17.04;48.62
47588;BME280;34356;45.788;12.046;2022-10-16T07:13:12;100816.32;;;16.91;48.60
47588;BME280;34356;45.788;12.046;2022-10-16T07:15:39;100815.83;;;17.18;48.60
47588;BME280;34356;45.788;12.046;2022-10-16T07:18:11;100817.33;;;17.21;48.64
47588;BME280;34356;45.788;12.046;2022-10-16T07:20:38;100816.50;;;17.19;48.77
47588;BME280;34356;45.788;12.046;2022-10-16T07:23:06;100815.92;;;17.27;48.73
47588;BME280;34356;45.788;12.046;2022-10-16T07:25:33;100820.95;;;17.35;48.78
47588;BME280;34356;45.788;12.046;2022-10-16T07:28:00;100824.59;;;17.44;48.62
47588;BME280;34356;45.788;12.046;2022-10-16T07:30:27;100826.42;;;17.27;48.82
47588;BME280;34356;45.788;12.046;2022-10-16T07:32:55;100829.19;;;17.62;48.58
47588;BME280;34356;45.788;12.046;2022-10-16T07:35:21;100831.24;;;16.99;48.67
47588;BME280;34356;45.788;12.046;2022-10-16T07:37:48;100834.05;;;17.30;48.53
47588;BME280;34356;45.788;12.046;2022-10-16T07:40:15;100838.58;;;17.38;48.56
47588;BME280;34356;45.788;12.046;2022-10-16T07:42:42;100843.63;;;17.44;48.54
47588;BME280;34356;45.788;12.046;2022-10-16T07:45:10;100845.77;;;17.56;48.39
47588;BME280;34356;45.788;12.046;2022-10-16T07:47:37;100849.92;;;17.62;48.33
47588;BME280;34356;45.788;12.046;2022-10-16T07:50:05;100852.12;;;17.77;48.19
47588;BME280;34356;45.788;12.046;2022-10-16T07:52:32;100855.82;;;17.88;48.12
47588;BME280;34356;45.788;12.046;2022-10-16T07:55:00;100856.77;;;17.99;48.01
47588;BME280;34356;45.788;12.046;2022-10-16T07:57:27;100855.26;;;17.85;48.00
47588;BME280;34356;45.788;12.046;2022-10-16T07:59:54;100856.69;;;17.98;47.84
47588;BME280;34356;45.788;12.046;2022-10-16T08:02:21;100854.85;;;17.87;47.63
47588;BME280;34356;45.788;12.046;2022-10-16T08:04:48;100854.75;;;18.15;47.60
47588;BME280;34356;45.788;12.046;2022-10-16T08:07:16;100860.40;;;17.98;47.55
47588;BME280;34356;45.788;12.046;2022-10-16T08:09:43;100863.16;;;18.29;47.53
47588;BME280;34356;45.788;12.046;2022-10-16T08:12:10;100865.03;;;18.19;47.40
47588;BME280;34356;45.788;12.046;2022-10-16T08:14:37;100866.69;;;18.29;47.28
47588;BME280;34356;45.788;12.046;2022-10-16T08:17:04;100868.07;;;18.64;47.13
47588;BME280;34356;45.788;12.046;2022-10-16T08:19:31;100869.21;;;18.53;47.02
47588;BME280;34356;45.788;12.046;2022-10-16T08:21:58;100869.41;;;18.64;46.91
47588;BME280;34356;45.788;12.046;2022-10-16T08:24:25;100869.72;;;18.75;46.83
47588;BME280;34356;45.788;12.046;2022-10-16T08:26:53;100868.17;;;19.07;46.70
47588;BME280;34356;45.788;12.046;2022-10-16T08:29:21;100871.77;;;18.66;46.65
47588;BME280;34356;45.788;12.046;2022-10-16T08:31:48;100875.85;;;19.02;46.52
47588;BME280;34356;45.788;12.046;2022-10-16T08:34:16;100876.54;;;18.58;46.51
47588;BME280;34356;45.788;12.046;2022-10-16T08:36:43;100877.04;;;19.14;46.50
47588;BME280;34356;45.788;12.046;2022-10-16T08:39:11;100877.42;;;19.24;46.38
47588;BME280;34356;45.788;12.046;2022-10-16T08:42:16;100880.12;;;19.09;46.63
47588;BME280;34356;45.788;12.046;2022-10-16T08:45:04;100883.90;;;19.30;47.17
47588;BME280;34356;45.788;12.046;2022-10-16T08:47:45;100890.59;;;19.56;47.22
47588;BME280;34356;45.788;12.046;2022-10-16T08:50:21;100888.13;;;19.03;47.05
47588;BME280;34356;45.788;12.046;2022-10-16T08:52:49;100894.13;;;19.69;46.78
47588;BME280;34356;45.788;12.046;2022-10-16T08:55:28;100894.00;;;19.09;46.50
47588;BME280;34356;45.788;12.046;2022-10-16T08:57:57;100893.83;;;20.08;46.22
47588;BME280;34356;45.788;12.046;2022-10-16T09:00:24;100892.54;;;19.93;46.12
47588;BME280;34356;45.788;12.046;2022-10-16T09:03:00;100890.81;;;20.23;45.76
47588;BME280;34356;45.788;12.046;2022-10-16T09:05:51;100892.95;;;20.11;45.80
47588;BME280;34356;45.788;12.046;2022-10-16T09:08:24;100892.98;;;19.73;45.70
47588;BME280;34356;45.788;12.046;2022-10-16T09:10:57;100892.24;;;20.29;45.38
47588;BME280;34356;45.788;12.046;2022-10-16T09:13:28;100893.11;;;20.09;45.23
47588;BME280;34356;45.788;12.046;2022-10-16T09:16:07;100893.82;;;20.35;45.12
47588;BME280;34356;45.788;12.046;2022-10-16T09:18:45;100896.68;;;20.17;44.99
47588;BME280;34356;45.788;12.046;2022-10-16T09:21:18;100899.15;;;19.92;44.89
47588;BME280;34356;45.788;12.046;2022-10-16T09:23:47;100899.88;;;20.43;44.80
47588;BME280;34356;45.788;12.046;2022-10-16T09:26:16;100903.95;;;19.98;44.71
47588;BME280;34356;45.788;12.046;2022-10-16T09:28:44;100906.47;;;20.49;44.54
47588;BME280;34356;45.788;12.046;2022-10-16T09:31:17;100910.67;;;20.04;44.41
47588;BME280;34356;45.788;12.046;2022-10-16T09:33:50;100911.48;;;20.37;44.28
47588;BME280;34356;45.788;12.046;2022-10-16T09:36:20;100914.13;;;19.69;44.16
47588;BME280;34356;45.788;12.046;2022-10-16T09:38:48;100913.54;;;20.54;43.95
47588;BME280;34356;45.788;12.046;2022-10-16T09:41:17;100914.44;;;20.33;43.75
47588;BME280;34356;45.788;12.046;2022-10-16T09:43:51;100917.27;;;20.85;43.64
47588;BME280;34356;45.788;12.046;2022-10-16T09:46:25;100917.79;;;20.22;43.48
47588;BME280;34356;45.788;12.046;2022-10-16T09:48:54;100917.33;;;20.97;43.53
47588;BME280;34356;45.788;12.046;2022-10-16T09:51:25;100915.30;;;20.50;43.45
47588;BME280;34356;45.788;12.046;2022-10-16T09:53:56;100916.97;;;20.82;43.38
47588;BME280;34356;45.788;12.046;2022-10-16T09:56:25;100915.09;;;20.61;43.28
47588;BME280;34356;45.788;12.046;2022-10-16T09:58:55;100913.45;;;21.16;43.22
47588;BME280;34356;45.788;12.046;2022-10-16T10:01:26;100912.18;;;20.70;43.19
47588;BME280;34356;45.788;12.046;2022-10-16T10:03:57;100910.38;;;21.04;43.05
47588;BME280;34356;45.788;12.046;2022-10-16T10:06:27;100907.38;;;20.85;42.96
47588;BME280;34356;45.788;12.046;2022-10-16T10:08:58;100907.18;;;21.18;42.96
47588;BME280;34356;45.788;12.046;2022-10-16T10:11:44;100904.31;;;20.98;43.06
47588;BME280;34356;45.788;12.046;2022-10-16T10:14:22;100901.59;;;21.06;42.99
47588;BME280;34356;45.788;12.046;2022-10-16T10:16:50;100900.94;;;21.44;42.79
47588;BME280;34356;45.788;12.046;2022-10-16T10:19:20;100897.91;;;20.79;42.88
47588;BME280;34356;45.788;12.046;2022-10-16T10:21:48;100898.50;;;21.38;42.85
47588;BME280;34356;45.788;12.046;2022-10-16T10:24:18;100894.72;;;20.98;42.76
47588;BME280;34356;45.788;12.046;2022-10-16T10:26:51;100893.87;;;21.55;42.88
47588;BME280;34356;45.788;12.046;2022-10-16T10:29:32;100892.15;;;21.16;43.00
47588;BME280;34356;45.788;12.046;2022-10-16T10:32:12;100892.13;;;21.76;42.76
47588;BME280;34356;45.788;12.046;2022-10-16T10:34:58;100889.02;;;21.81;43.68
47588;BME280;34356;45.788;12.046;2022-10-16T10:37:39;100890.07;;;21.92;42.84
47588;BME280;34356;45.788;12.046;2022-10-16T10:40:21;100886.21;;;21.91;42.53
47588;BME280;34356;45.788;12.046;2022-10-16T10:42:57;100882.36;;;21.97;42.39
47588;BME280;34356;45.788;12.046;2022-10-16T10:45:28;100882.15;;;21.99;42.30
47588;BME280;34356;45.788;12.046;2022-10-16T10:48:13;100880.06;;;21.95;42.24
47588;BME280;34356;45.788;12.046;2022-10-16T10:50:49;100876.86;;;22.18;42.14
47588;BME280;34356;45.788;12.046;2022-10-16T10:53:29;100876.44;;;21.52;42.08
47588;BME280;34356;45.788;12.046;2022-10-16T10:56:07;100876.74;;;22.13;42.04
47588;BME280;34356;45.788;12.046;2022-10-16T10:59:11;100872.15;;;22.21;42.00
47588;BME280;34356;45.788;12.046;2022-10-16T11:01:50;100874.41;;;22.32;41.57
47588;BME280;34356;45.788;12.046;2022-10-16T11:04:34;100871.46;;;21.84;41.61
47588;BME280;34356;45.788;12.046;2022-10-16T11:07:05;100870.60;;;22.43;41.40
47588;BME280;34356;45.788;12.046;2022-10-16T11:09:40;100869.48;;;22.30;41.40
47588;BME280;34356;45.788;12.046;2022-10-16T11:12:16;100865.73;;;22.57;41.18
47588;BME280;34356;45.788;12.046;2022-10-16T11:14:49;100866.36;;;22.45;41.15
47588;BME280;34356;45.788;12.046;2022-10-16T11:17:25;100869.14;;;22.21;41.07
47588;BME280;34356;45.788;12.046;2022-10-16T11:19:58;100870.77;;;22.57;41.22
47588;BME280;34356;45.788;12.046;2022-10-16T11:22:32;100868.64;;;22.37;40.85
47588;BME280;34356;45.788;12.046;2022-10-16T11:25:11;100871.17;;;22.78;40.73
47588;BME280;34356;45.788;12.046;2022-10-16T11:27:42;100870.90;;;22.82;40.49
47588;BME280;34356;45.788;12.046;2022-10-16T11:30:16;100870.42;;;22.64;40.41
47588;BME280;34356;45.788;12.046;2022-10-16T11:33:00;100867.89;;;22.74;40.30
47588;BME280;34356;45.788;12.046;2022-10-16T11:35:38;100866.96;;;22.85;40.32
47588;BME280;34356;45.788;12.046;2022-10-16T11:38:12;100867.64;;;23.00;39.86
47588;BME280;34356;45.788;12.046;2022-10-16T11:40:43;100867.71;;;23.11;39.81
47588;BME280;34356;45.788;12.046;2022-10-16T11:43:19;100864.64;;;22.78;39.75
47588;BME280;34356;45.788;12.046;2022-10-16T11:45:51;100864.25;;;23.37;39.77
47588;BME280;34356;45.788;12.046;2022-10-16T11:48:26;100862.83;;;22.82;40.12
47588;BME280;34356;45.788;12.046;2022-10-16T11:50:58;100857.38;;;23.47;39.95
47588;BME280;34356;45.788;12.046;2022-10-16T11:53:42;100860.91;;;23.37;39.60
47588;BME280;34356;45.788;12.046;2022-10-16T11:56:13;100864.70;;;23.47;39.52
47588;BME280;34356;45.788;12.046;2022-10-16T11:58:53;100865.73;;;24.02;39.49
47588;BME280;34356;45.788;12.046;2022-10-16T12:01:28;100863.76;;;23.38;39.41
47588;BME280;34356;45.788;12.046;2022-10-16T12:04:13;100863.02;;;23.73;39.03
47588;BME280;34356;45.788;12.046;2022-10-16T12:06:44;100864.84;;;23.81;38.98
47588;BME280;34356;45.788;12.046;2022-10-16T12:09:17;100863.86;;;23.62;39.04
47588;BME280;34356;45.788;12.046;2022-10-16T12:11:47;100865.35;;;24.00;38.88
47588;BME280;34356;45.788;12.046;2022-10-16T12:14:46;100861.42;;;23.80;38.75
47588;BME280;34356;45.788;12.046;2022-10-16T12:17:36;100859.95;;;23.64;38.60
47588;BME280;34356;45.788;12.046;2022-10-16T12:20:22;100860.16;;;23.93;38.46
47588;BME280;34356;45.788;12.046;2022-10-16T12:22:52;100857.25;;;24.27;38.37
47588;BME280;34356;45.788;12.046;2022-10-16T12:25:25;100859.06;;;23.84;38.19
47588;BME280;34356;45.788;12.046;2022-10-16T12:27:59;100859.71;;;24.40;38.12
47588;BME280;34356;45.788;12.046;2022-10-16T12:30:28;100862.16;;;24.23;37.98
47588;BME280;34356;45.788;12.046;2022-10-16T12:32:57;100864.60;;;24.58;37.91
47588;BME280;34356;45.788;12.046;2022-10-16T12:35:28;100865.72;;;24.16;37.84
47588;BME280;34356;45.788;12.046;2022-10-16T12:38:06;100866.32;;;24.69;37.76
47588;BME280;34356;45.788;12.046;2022-10-16T12:40:35;100868.40;;;24.69;37.71
47588;BME280;34356;45.788;12.046;2022-10-16T12:43:23;100871.79;;;24.37;37.85
47588;BME280;34356;45.788;12.046;2022-10-16T12:46:00;100872.56;;;24.54;37.47
47588;BME280;34356;45.788;12.046;2022-10-16T12:48:27;100871.80;;;24.52;37.68
47588;BME280;34356;45.788;12.046;2022-10-16T12:50:54;100870.12;;;24.31;37.46
47588;BME280;34356;45.788;12.046;2022-10-16T12:53:23;100873.61;;;23.90;37.52
47588;BME280;34356;45.788;12.046;2022-10-16T12:55:57;100874.93;;;24.14;37.59
47588;BME280;34356;45.788;12.046;2022-10-16T12:58:41;100875.43;;;23.96;37.69